Time;durP1;ratioP1;P1;durP2;ratioP2;P2;SDS_P1;SDS_P2;PMS_P1;PMS_P2;Temp;Humidity;BMP_temperature;BMP_pressure;BME280_temperature;BME280_humidity;BME280_pressure;Samples;Min_cycle;Max_cycle;Signal;HPM_P1;HPM_P2
2022/10/02 00:00:11;;;;;;;6.35;1.60;;;13.90;99.90;;;;;;5033291;28;20038;-72
2022/10/02 00:02:42;;;;;;;11.02;1.63;;;13.80;99.90;;;;;;5032967;28;20386;-72
2022/10/02 00:05:16;;;;;;;12.65;1.98;;;13.80;99.90;;;;;;5033276;28;20511;-71
2022/10/02 00:07:51;;;;;;;7.88;1.65;;;13.80;99.90;;;;;;5033086;28;20136;-71
2022/10/02 00:10:28;;;;;;;6.30;1.80;;;13.90;99.90;;;;;;5032817;28;20030;-71
2022/10/02 00:13:01;;;;;;;12.60;1.83;;;13.90;99.90;;;;;;5032874;28;20026;-71
2022/10/02 00:15:31;;;;;;;4.53;1.42;;;13.90;99.90;;;;;;5050510;28;20044;-72
2022/10/02 00:18:07;;;;;;;12.60;3.55;;;13.90;99.90;;;;;;5052797;28;20503;-72
2022/10/02 00:20:43;;;;;;;11.80;1.75;;;13.90;99.90;;;;;;5052770;28;20021;-72
2022/10/02 00:23:40;;;;;;;11.80;1.90;;;13.80;99.90;;;;;;5053012;28;20021;-72
2022/10/02 00:26:09;;;;;;;13.07;1.65;;;13.90;99.90;;;;;;5030604;28;20033;-72
2022/10/02 00:28:40;;;;;;;5.55;1.50;;;14.00;99.90;;;;;;5052971;28;20436;-72
2022/10/02 00:31:43;;;;;;;10.55;1.67;;;14.00;99.90;;;;;;5052525;28;20029;-73
2022/10/02 00:34:21;;;;;;;9.50;1.58;;;14.00;99.90;;;;;;5052615;28;20091;-72
2022/10/02 00:37:21;;;;;;;10.70;1.40;;;14.00;99.90;;;;;;5052633;28;20117;-71
2022/10/02 00:40:24;;;;;;;7.15;1.35;;;14.10;99.90;;;;;;5050464;28;20421;-71
2022/10/02 00:43:22;;;;;;;8.82;1.63;;;14.20;99.90;;;;;;5050986;28;20110;-72
2022/10/02 00:46:09;;;;;;;8.07;1.60;;;14.10;99.90;;;;;;5052430;28;20197;-72
2022/10/02 00:49:00;;;;;;;4.10;1.20;;;14.10;99.90;;;;;;5051296;28;20022;-71
2022/10/02 00:51:50;;;;;;;5.28;2.03;;;14.10;99.90;;;;;;5052463;28;20116;-72
2022/10/02 00:54:28;;;;;;;8.32;1.40;;;14.10;99.90;;;;;;5052000;28;20179;-72
2022/10/02 00:57:03;;;;;;;6.10;1.52;;;14.00;99.90;;;;;;5052005;28;20033;-71
2022/10/02 00:59:49;;;;;;;6.72;1.55;;;14.00;99.90;;;;;;5052108;28;20118;-71
2022/10/02 01:02:51;;;;;;;15.70;2.00;;;14.00;99.90;;;;;;5052668;28;20013;-72
2022/10/02 01:05:19;;;;;;;4.82;1.30;;;13.90;99.90;;;;;;5051877;28;20029;-71
2022/10/02 01:07:49;;;;;;;8.65;2.13;;;13.90;99.90;;;;;;5051124;28;20052;-72
2022/10/02 01:10:16;;;;;;;12.95;1.70;;;14.00;99.90;;;;;;5051787;28;20043;-72
2022/10/02 01:12:42;;;;;;;7.00;1.60;;;14.00;99.90;;;;;;5051923;28;20032;-72
2022/10/02 01:15:17;;;;;;;7.32;1.65;;;14.00;99.90;;;;;;5051519;28;20431;-72
2022/10/02 01:17:44;;;;;;;13.70;1.50;;;14.00;99.90;;;;;;5051577;28;20036;-72
2022/10/02 01:20:18;;;;;;;9.52;2.08;;;14.00;99.90;;;;;;5052270;28;20172;-71
2022/10/02 01:22:57;;;;;;;9.15;1.35;;;13.90;99.90;;;;;;5051520;28;20097;-71
2022/10/02 01:25:23;;;;;;;6.95;1.92;;;14.00;99.90;;;;;;5050577;28;20025;-72
2022/10/02 01:27:51;;;;;;;12.57;2.10;;;14.00;99.90;;;;;;5051832;28;20470;-73
2022/10/02 01:30:18;;;;;;;;;;;13.90;99.90;;;;;;5052177;28;20041;-72
2022/10/02 01:32:56;;;;;;;11.07;1.67;;;13.90;99.90;;;;;;5051429;28;20334;-72
2022/10/02 01:35:26;;;;;;;11.30;2.25;;;14.00;99.90;;;;;;5046714;28;20283;-73
2022/10/02 01:37:54;;;;;;;8.00;1.30;;;14.00;99.90;;;;;;5032040;28;20096;-72
2022/10/02 01:40:34;;;;;;;11.10;2.63;;;13.90;99.90;;;;;;5030223;28;20032;-73
2022/10/02 01:43:13;;;;;;;11.20;2.08;;;13.90;99.90;;;;;;5031525;28;20064;-73
2022/10/02 01:45:52;;;;;;;12.48;1.60;;;13.90;99.90;;;;;;5031393;28;20025;-72
2022/10/02 01:48:38;;;;;;;5.45;1.30;;;13.80;99.90;;;;;;5031252;28;20029;-72
2022/10/02 01:51:33;;;;;;;10.88;2.10;;;13.80;99.90;;;;;;5031184;28;20026;-72
2022/10/02 01:54:13;;;;;;;9.10;2.80;;;13.80;99.90;;;;;;5030694;28;20026;-72
2022/10/02 01:56:39;;;;;;;10.93;2.40;;;13.80;99.90;;;;;;5029763;28;20037;-73
2022/10/02 01:59:26;;;;;;;11.55;2.08;;;13.70;99.90;;;;;;5031620;28;20079;-72
2022/10/02 02:02:03;;;;;;;6.53;2.05;;;13.70;99.90;;;;;;5030948;28;20471;-71
2022/10/02 02:04:41;;;;;;;9.47;1.90;;;13.70;99.90;;;;;;5030834;28;20081;-73
2022/10/02 02:07:24;;;;;;;19.70;2.13;;;13.70;99.90;;;;;;5029941;28;20247;-72
2022/10/02 02:10:03;;;;;;;10.13;2.03;;;13.70;99.90;;;;;;5029670;28;20037;-71
2022/10/02 02:12:42;;;;;;;14.65;2.45;;;13.70;99.90;;;;;;5030921;28;20033;-74
2022/10/02 02:15:27;;;;;;;15.80;3.15;;;13.70;99.90;;;;;;5030580;28;20069;-73
2022/10/02 02:18:10;;;;;;;12.90;2.65;;;13.70;99.90;;;;;;5030945;28;20095;-71
2022/10/02 02:20:46;;;;;;;18.10;2.45;;;13.70;99.90;;;;;;5030849;28;20041;-71
2022/10/02 02:23:21;;;;;;;16.50;3.42;;;13.70;99.90;;;;;;5030989;28;20032;-71
2022/10/02 02:25:50;;;;;;;10.75;2.70;;;13.70;99.90;;;;;;5030624;28;20049;-71
2022/10/02 02:28:19;;;;;;;16.95;2.60;;;13.70;99.90;;;;;;5030515;28;20029;-72
2022/10/02 02:30:49;;;;;;;10.60;1.83;;;13.70;99.90;;;;;;5030785;28;20098;-73
2022/10/02 02:33:21;;;;;;;10.13;2.35;;;13.70;99.90;;;;;;5030465;28;20048;-72
2022/10/02 02:35:52;;;;;;;9.25;2.45;;;13.70;99.90;;;;;;5029339;28;20099;-72
2022/10/02 02:38:36;;;;;;;16.55;2.58;;;13.70;99.90;;;;;;5030423;28;20442;-71
2022/10/02 02:41:07;;;;;;;13.88;2.22;;;13.60;99.90;;;;;;5030661;28;20058;-71
2022/10/02 02:43:41;;;;;;;10.98;2.58;;;13.70;99.90;;;;;;5030563;28;20111;-72
2022/10/02 02:46:17;;;;;;;15.15;3.05;;;13.60;99.90;;;;;;5030506;28;20048;-72
2022/10/02 02:48:47;;;;;;;16.52;3.92;;;13.70;99.90;;;;;;5030670;28;20060;-71
2022/10/02 02:51:19;;;;;;;14.65;3.80;;;13.70;99.90;;;;;;5030480;28;20133;-71
2022/10/02 02:54:09;;;;;;;19.70;3.83;;;13.60;99.90;;;;;;5030253;28;20436;-72
2022/10/02 02:56:35;;;;;;;18.70;3.45;;;13.60;99.90;;;;;;5030298;28;20030;-71
2022/10/02 02:59:09;;;;;;;17.95;3.40;;;13.70;99.90;;;;;;5030583;28;20037;-71
2022/10/02 03:01:35;;;;;;;20.35;3.53;;;13.70;99.90;;;;;;5029980;28;20022;-71
2022/10/02 03:04:00;;;;;;;21.15;3.78;;;13.70;99.90;;;;;;5031025;28;20033;-71
2022/10/02 03:06:30;;;;;;;22.73;4.28;;;13.70;99.90;;;;;;5034543;28;20107;-70
2022/10/02 03:08:57;;;;;;;17.42;3.88;;;13.70;99.90;;;;;;5034287;28;20038;-71
2022/10/02 03:11:31;;;;;;;18.33;4.00;;;13.70;99.90;;;;;;5034112;28;20309;-71
2022/10/02 03:14:24;;;;;;;30.38;4.60;;;13.70;99.90;;;;;;5034409;28;20709;-72
2022/10/02 03:17:18;;;;;;;20.85;4.63;;;13.70;99.90;;;;;;5014478;28;20056;-71
2022/10/02 03:19:50;;;;;;;21.63;4.63;;;13.70;99.90;;;;;;5034178;28;20041;-72
2022/10/02 03:22:42;;;;;;;14.18;3.22;;;13.70;99.90;;;;;;5033777;28;20030;-71
2022/10/02 03:25:42;;;;;;;16.10;4.60;;;13.70;99.90;;;;;;5033829;28;20030;-73
2022/10/02 03:28:20;;;;;;;15.85;3.67;;;13.70;99.90;;;;;;5033883;28;20494;-72
2022/10/02 03:30:46;;;;;;;18.95;4.88;;;13.70;99.90;;;;;;5033847;28;20040;-72
2022/10/02 03:33:15;;;;;;;20.25;5.13;;;13.70;99.90;;;;;;5033947;28;20110;-72
2022/10/02 03:35:42;;;;;;;16.55;4.40;;;13.80;99.90;;;;;;5034056;28;20171;-71
2022/10/02 03:38:11;;;;;;;22.10;5.03;;;13.80;99.90;;;;;;5034228;28;20018;-72
2022/10/02 03:40:37;;;;;;;22.63;5.53;;;13.80;99.90;;;;;;5034153;28;20259;-72
2022/10/02 03:43:03;;;;;;;26.08;5.40;;;13.80;99.90;;;;;;5033644;28;20056;-72
2022/10/02 03:45:29;;;;;;;24.15;6.28;;;13.70;99.90;;;;;;5033587;28;20033;-72
2022/10/02 03:47:55;;;;;;;21.48;5.03;;;13.70;99.90;;;;;;5033502;28;20030;-72
2022/10/02 03:50:21;;;;;;;16.80;5.28;;;13.80;99.90;;;;;;5033436;28;20356;-72
2022/10/02 03:52:51;;;;;;;21.80;6.00;;;13.90;99.90;;;;;;5033875;28;20072;-71
2022/10/02 03:55:17;;;;;;;23.20;6.00;;;13.90;99.90;;;;;;5033407;28;20490;-72
2022/10/02 03:57:44;;;;;;;19.13;6.43;;;13.90;99.90;;;;;;5033303;28;20029;-72
2022/10/02 04:00:18;;;;;;;17.77;6.13;;;13.90;99.90;;;;;;5033293;28;20121;-72
2022/10/02 04:02:50;;;;;;;22.98;5.22;;;13.90;99.90;;;;;;5033055;28;20042;-72
2022/10/02 04:05:20;;;;;;;20.63;5.68;;;13.90;99.90;;;;;;5033596;28;20256;-72
2022/10/02 04:07:50;;;;;;;21.90;5.95;;;13.90;99.90;;;;;;5013786;28;20046;-71
2022/10/02 04:10:19;;;;;;;28.33;6.20;;;13.90;99.90;;;;;;5030083;28;20033;-72
2022/10/02 04:12:51;;;;;;;23.88;6.03;;;13.90;99.90;;;;;;5033223;28;20060;-72
2022/10/02 04:15:22;;;;;;;18.35;6.32;;;13.90;99.90;;;;;;5032582;28;20057;-71
2022/10/02 04:17:54;;;;;;;21.60;6.00;;;13.90;99.90;;;;;;5031686;28;20082;-72
2022/10/02 04:20:30;;;;;;;16.33;5.20;;;14.00;99.90;;;;;;5032839;28;20083;-72
2022/10/02 04:23:13;;;;;;;25.35;5.88;;;14.00;99.90;;;;;;5033509;28;20035;-71
2022/10/02 04:25:45;;;;;;;18.90;6.38;;;13.90;99.90;;;;;;5032608;28;20032;-72
2022/10/02 04:28:15;;;;;;;22.33;5.65;;;14.00;99.90;;;;;;5032908;28;20127;-73
2022/10/02 04:30:41;;;;;;;20.35;5.32;;;14.00;99.90;;;;;;5032791;28;20030;-72
2022/10/02 04:33:12;;;;;;;19.75;5.25;;;14.00;99.90;;;;;;5032660;28;20047;-72
2022/10/02 04:35:51;;;;;;;17.98;5.32;;;14.00;99.90;;;;;;5032778;28;20096;-72
2022/10/02 04:38:20;;;;;;;12.82;5.43;;;13.90;99.90;;;;;;5032455;28;20086;-71
2022/10/02 04:40:54;;;;;;;16.65;5.70;;;14.00;99.90;;;;;;5033128;28;20049;-73
2022/10/02 04:43:52;;;;;;;14.15;5.43;;;14.00;99.90;;;;;;5033092;28;20104;-73
2022/10/02 04:46:51;;;;;;;14.88;5.55;;;14.00;99.90;;;;;;5028685;28;20030;-72
2022/10/02 04:49:49;;;;;;;16.65;5.35;;;14.00;99.90;;;;;;5031344;28;20551;-73
2022/10/02 04:52:33;;;;;;;;;;;14.10;99.90;;;;;;5032643;28;20034;-72
2022/10/02 04:55:07;;;;;;;18.30;6.47;;;14.10;99.90;;;;;;5031331;28;19920;-71
2022/10/02 04:58:07;;;;;;;20.73;7.30;;;14.10;99.90;;;;;;5032259;28;20518;-73
2022/10/02 05:00:52;;;;;;;28.63;8.43;;;14.10;99.90;;;;;;5032298;28;20033;-71
2022/10/02 05:03:31;;;;;;;19.55;7.15;;;14.10;99.90;;;;;;5032120;28;20056;-72
2022/10/02 05:06:19;;;;;;;19.05;7.07;;;14.10;99.90;;;;;;5032428;28;20045;-72
2022/10/02 05:09:10;;;;;;;18.25;7.70;;;14.00;99.90;;;;;;5032192;28;20036;-71
2022/10/02 05:11:57;;;;;;;17.52;7.60;;;14.10;99.90;;;;;;5032074;28;20663;-71
2022/10/02 05:14:46;;;;;;;17.27;7.30;;;14.10;99.90;;;;;;5030741;28;20038;-72
2022/10/02 05:17:44;;;;;;;21.05;7.25;;;14.10;99.90;;;;;;5031222;28;20022;-73
2022/10/02 05:20:09;;;;;;;;;;;14.10;99.90;;;;;;5031978;28;20033;-73
2022/10/02 05:23:20;;;;;;;19.85;6.90;;;14.10;99.90;;;;;;5063799;28;20405;-72
2022/10/02 05:26:27;;;;;;;20.58;6.80;;;13.90;99.90;;;;;;5023358;28;20069;-72
2022/10/02 05:29:47;;;;;;;29.58;7.07;;;14.00;99.90;;;;;;5011935;28;20549;-71
2022/10/02 05:32:27;;;;;;;22.23;7.40;;;14.00;99.90;;;;;;4993318;28;20364;-73
2022/10/02 05:35:14;;;;;;;16.77;6.57;;;14.00;99.90;;;;;;5047655;28;20029;-72
2022/10/02 05:37:47;;;;;;;19.27;7.25;;;14.10;99.90;;;;;;5031647;28;20128;-71
2022/10/02 05:40:19;;;;;;;16.05;6.75;;;14.00;99.90;;;;;;5031491;28;20060;-72
2022/10/02 05:43:10;;;;;;;22.95;7.80;;;14.00;99.90;;;;;;5031398;28;20426;-71
2022/10/02 05:45:54;;;;;;;21.60;8.20;;;14.00;99.90;;;;;;5031367;28;20034;-72
2022/10/02 05:48:27;;;;;;;22.98;7.47;;;14.00;99.90;;;;;;5031404;28;20038;-73
2022/10/02 05:51:09;;;;;;;14.95;7.68;;;13.90;99.90;;;;;;5031597;28;20375;-73
2022/10/02 05:53:51;;;;;;;24.60;8.73;;;14.00;99.90;;;;;;5031363;28;20055;-72
2022/10/02 05:56:25;;;;;;;20.85;9.07;;;14.00;99.90;;;;;;5031264;28;20383;-72
2022/10/02 05:59:02;;;;;;;23.75;8.35;;;14.00;99.90;;;;;;5031645;28;20493;-72
2022/10/02 06:01:36;;;;;;;24.50;9.82;;;14.00;99.90;;;;;;5031161;28;20033;-72
2022/10/02 06:04:32;;;;;;;20.77;8.23;;;14.00;99.90;;;;;;5030949;28;20038;-72
2022/10/02 06:07:10;;;;;;;20.88;8.50;;;14.00;99.90;;;;;;5030999;28;20025;-72
2022/10/02 06:09:46;;;;;;;23.23;8.93;;;14.00;99.90;;;;;;5031222;28;20407;-71
2022/10/02 06:12:22;;;;;;;21.15;8.52;;;14.10;99.90;;;;;;5030804;28;20283;-71
2022/10/02 06:15:14;;;;;;;19.83;9.40;;;14.10;99.90;;;;;;5031085;28;20053;-71
2022/10/02 06:17:46;;;;;;;27.25;8.75;;;14.10;99.90;;;;;;5030876;28;20467;-70
2022/10/02 06:20:24;;;;;;;18.33;8.57;;;14.20;99.90;;;;;;5031215;28;20091;-72
2022/10/02 06:23:12;;;;;;;31.55;9.20;;;14.10;99.90;;;;;;5011188;28;20109;-72
2022/10/02 06:25:44;;;;;;;27.70;10.05;;;14.10;99.90;;;;;;5030297;28;20104;-72
2022/10/02 06:28:14;;;;;;;18.35;7.85;;;14.20;99.90;;;;;;5062880;28;20026;-72
2022/10/02 06:30:46;;;;;;;23.17;8.65;;;14.20;99.90;;;;;;5030700;28;20025;-71
2022/10/02 06:33:38;;;;;;;27.50;10.23;;;14.30;99.90;;;;;;5030633;28;20112;-72
2022/10/02 06:36:12;;;;;;;19.10;8.18;;;14.20;99.90;;;;;;5027822;28;20021;-71
2022/10/02 06:38:56;;;;;;;27.55;9.38;;;14.30;99.90;;;;;;5030597;28;20032;-72
2022/10/02 06:41:50;;;;;;;21.17;9.07;;;14.30;99.90;;;;;;5030349;28;20040;-70
2022/10/02 06:44:37;;;;;;;21.02;8.90;;;14.20;99.90;;;;;;5030865;28;20186;-71
2022/10/02 06:47:37;;;;;;;22.27;9.50;;;14.30;99.90;;;;;;5030462;28;20025;-71
2022/10/02 06:50:32;;;;;;;19.17;7.80;;;14.40;99.90;;;;;;5010586;28;20041;-71
2022/10/02 06:53:17;;;;;;;24.02;7.57;;;14.40;99.90;;;;;;5021025;28;20511;-70
2022/10/02 06:56:01;;;;;;;20.67;8.25;;;14.40;99.90;;;;;;5010964;28;20428;-72
2022/10/02 06:58:51;;;;;;;23.40;7.13;;;14.40;99.90;;;;;;5010701;28;20034;-71
2022/10/02 07:01:53;;;;;;;25.17;9.00;;;14.40;99.90;;;;;;5010565;28;20048;-71
2022/10/02 07:05:01;;;;;;;13.15;6.40;;;14.50;99.90;;;;;;5010273;28;20053;-73
2022/10/02 07:07:29;;;;;;;21.10;5.93;;;14.50;99.90;;;;;;5010428;28;20042;-72
2022/10/02 07:10:07;;;;;;;18.08;5.63;;;14.60;99.90;;;;;;5010474;28;20099;-72
2022/10/02 07:12:55;;;;;;;16.02;5.20;;;14.70;99.90;;;;;;5009246;28;20030;-72
2022/10/02 07:15:30;;;;;;;18.10;4.97;;;14.70;99.90;;;;;;5010397;28;20103;-72
2022/10/02 07:18:33;;;;;;;16.70;5.05;;;14.80;99.90;;;;;;5010707;28;20040;-73
2022/10/02 07:21:09;;;;;;;17.48;4.55;;;14.80;99.90;;;;;;5010404;28;20105;-71
2022/10/02 07:23:46;;;;;;;12.50;4.25;;;14.80;99.90;;;;;;5010207;28;20101;-72
2022/10/02 07:26:36;;;;;;;16.58;4.50;;;14.90;99.90;;;;;;5010832;28;20108;-72
2022/10/02 07:29:08;;;;;;;19.23;4.53;;;14.90;99.90;;;;;;5010555;28;20474;-71
2022/10/02 07:31:59;;;;;;;17.40;4.90;;;14.90;99.90;;;;;;5029191;28;20025;-71
2022/10/02 07:34:50;;;;;;;18.70;4.38;;;15.00;99.90;;;;;;5029825;28;20176;-70
2022/10/02 07:37:20;;;;;;;10.27;3.42;;;15.00;99.90;;;;;;5030013;28;20029;-72
2022/10/02 07:40:13;;;;;;;16.83;4.25;;;15.10;99.90;;;;;;5029663;28;20038;-72
2022/10/02 07:42:51;;;;;;;21.30;3.95;;;15.10;99.90;;;;;;5028630;28;20040;-72
2022/10/02 07:45:25;;;;;;;12.95;3.58;;;15.20;99.90;;;;;;5028774;28;20090;-70
2022/10/02 07:48:31;;;;;;;17.35;4.55;;;15.10;99.90;;;;;;5029998;28;20033;-76
2022/10/02 07:51:03;;;;;;;15.63;4.20;;;15.10;99.90;;;;;;5032053;28;20034;-70
2022/10/02 07:53:42;;;;;;;14.05;3.78;;;15.00;99.90;;;;;;5033582;28;20036;-74
2022/10/02 07:56:18;;;;;;;18.83;4.35;;;15.10;99.90;;;;;;5033772;28;20014;-72
2022/10/02 07:58:58;;;;;;;13.98;3.78;;;15.10;99.90;;;;;;5033463;28;20125;-72
2022/10/02 08:01:29;;;;;;;18.60;3.83;;;15.20;99.90;;;;;;5033401;28;20148;-77
2022/10/02 08:04:00;;;;;;;25.77;4.78;;;15.20;99.90;;;;;;5033205;28;20040;-73
2022/10/02 08:06:26;;;;;;;19.35;4.47;;;15.30;99.90;;;;;;5033417;28;20030;-73
2022/10/02 08:08:57;;;;;;;19.67;4.28;;;15.40;99.90;;;;;;5033113;28;20352;-71
2022/10/02 08:11:43;;;;;;;15.40;3.50;;;15.30;99.90;;;;;;5033213;28;20021;-71
2022/10/02 08:14:17;;;;;;;19.42;4.20;;;15.30;99.90;;;;;;5033421;28;20574;-71
2022/10/02 08:16:51;;;;;;;17.05;3.92;;;15.30;99.90;;;;;;5033518;28;20030;-71
2022/10/02 08:19:23;;;;;;;18.42;3.90;;;15.30;99.90;;;;;;5032991;28;20029;-72
2022/10/02 08:21:57;;;;;;;18.48;3.78;;;15.40;99.90;;;;;;5031972;28;20117;-72
2022/10/02 08:24:28;;;;;;;14.85;3.00;;;15.50;99.90;;;;;;5032991;28;20116;-71
2022/10/02 08:26:59;;;;;;;18.75;4.22;;;15.50;99.90;;;;;;5033288;28;20053;-71
2022/10/02 08:29:51;;;;;;;21.30;4.55;;;15.40;99.90;;;;;;5033242;28;20029;-69
2022/10/02 08:32:16;;;;;;;13.85;3.90;;;15.60;99.90;;;;;;5031781;28;20502;-70
2022/10/02 08:34:43;;;;;;;13.07;3.88;;;15.70;99.90;;;;;;5033351;28;20033;-72
2022/10/02 08:37:14;;;;;;;15.68;4.07;;;15.70;99.90;;;;;;5031802;28;20463;-71
2022/10/02 08:40:15;;;;;;;18.88;3.67;;;15.80;99.90;;;;;;5032671;28;20040;-71
2022/10/02 08:43:07;;;;;;;21.25;3.97;;;15.90;99.90;;;;;;4971402;28;20038;-70
2022/10/02 08:45:53;;;;;;;20.15;4.57;;;15.90;99.90;;;;;;5011314;28;20049;-71
2022/10/02 08:48:54;;;;;;;23.25;4.10;;;16.00;99.90;;;;;;5012564;28;20073;-70
2022/10/02 08:51:41;;;;;;;20.52;3.55;;;16.10;99.90;;;;;;5012890;28;20038;-72
2022/10/02 08:54:19;;;;;;;17.63;3.53;;;16.50;99.90;;;;;;5012899;28;20034;-72
2022/10/02 08:57:21;;;;;;;17.33;3.15;;;17.10;99.90;;;;;;5012750;28;20026;-72
2022/10/02 09:00:13;;;;;;;20.02;3.58;;;17.10;99.90;;;;;;5012758;28;20109;-71
2022/10/02 09:03:04;;;;;;;13.63;2.92;;;17.30;99.90;;;;;;5011207;28;20045;-70
2022/10/02 09:05:48;;;;;;;27.23;3.70;;;17.60;99.90;;;;;;5012264;28;20036;-72
2022/10/02 09:08:59;;;;;;;18.27;3.28;;;17.90;99.90;;;;;;5011649;28;20030;-70
2022/10/02 09:11:54;;;;;;;17.60;3.60;;;18.40;99.90;;;;;;5012305;28;20042;-71
2022/10/02 09:14:25;;;;;;;12.00;2.28;;;18.90;99.10;;;;;;5012113;28;20115;-71
2022/10/02 09:17:13;;;;;;;17.48;2.80;;;19.10;97.50;;;;;;5012543;28;20136;-70
2022/10/02 09:19:45;;;;;;;15.50;2.65;;;19.10;97.00;;;;;;5012013;28;20033;-70
2022/10/02 09:22:48;;;;;;;11.20;2.50;;;19.00;97.40;;;;;;5012010;28;20030;-70
2022/10/02 09:25:36;;;;;;;16.23;3.10;;;19.40;97.40;;;;;;5012105;28;20045;-70
2022/10/02 09:28:21;;;;;;;15.90;2.70;;;19.70;96.60;;;;;;5012057;28;20049;-71
2022/10/02 09:30:49;;;;;;;11.90;2.50;;;20.60;97.50;;;;;;5012105;28;20046;-68
2022/10/02 09:33:33;;;;;;;14.90;3.25;;;21.30;95.90;;;;;;5011870;28;20077;-70
2022/10/02 09:36:10;;;;;;;16.10;3.15;;;21.40;94.90;;;;;;5011743;28;20034;-70
2022/10/02 09:38:50;;;;;;;14.15;2.72;;;21.40;95.20;;;;;;5027380;28;20363;-68
2022/10/02 09:41:30;;;;;;;14.10;1.90;;;22.30;94.20;;;;;;5012249;28;20033;-69
2022/10/02 09:44:41;;;;;;;12.57;2.58;;;22.70;94.00;;;;;;5011907;28;20341;-72
2022/10/02 09:47:43;;;;;;;15.50;2.65;;;23.70;90.80;;;;;;5031780;28;20452;-70
2022/10/02 09:50:40;;;;;;;9.50;1.98;;;24.90;89.80;;;;;;5031542;28;20482;-70
2022/10/02 09:53:35;;;;;;;11.85;2.30;;;23.50;90.20;;;;;;5046861;28;20088;-70
2022/10/02 09:56:44;;;;;;;12.25;2.33;;;23.40;86.90;;;;;;5031208;28;20038;-71
2022/10/02 09:59:36;;;;;;;12.15;2.33;;;22.90;89.50;;;;;;5031136;28;20099;-70
2022/10/02 10:02:32;;;;;;;10.50;2.22;;;23.30;89.40;;;;;;5031286;28;20495;-70
2022/10/02 10:05:17;;;;;;;11.15;2.08;;;23.80;88.50;;;;;;5031081;28;20136;-70
2022/10/02 10:07:51;;;;;;;12.73;2.20;;;23.90;84.30;;;;;;5030939;28;20061;-71
2022/10/02 10:10:52;;;;;;;12.27;2.38;;;24.60;86.00;;;;;;5031478;28;20037;-71
2022/10/02 10:13:31;;;;;;;9.25;1.90;;;26.10;79.00;;;;;;5030090;28;20030;-73
2022/10/02 10:16:28;;;;;;;11.70;2.05;;;26.60;76.80;;;;;;5031227;28;20050;-74
2022/10/02 10:19:22;;;;;;;5.97;1.75;;;26.40;74.00;;;;;;5030911;28;20160;-71
2022/10/02 10:22:14;;;;;;;6.45;1.60;;;25.20;80.10;;;;;;5030849;28;20236;-70
2022/10/02 10:24:58;;;;;;;11.73;2.47;;;25.10;77.60;;;;;;5030901;28;20049;-73
2022/10/02 10:27:37;;;;;;;7.22;2.15;;;24.40;74.80;;;;;;5030635;28;20125;-71
2022/10/02 10:30:09;;;;;;;10.52;2.33;;;23.60;79.30;;;;;;5029507;28;20068;-71
2022/10/02 10:32:47;;;;;;;17.52;3.00;;;22.80;79.10;;;;;;5030725;28;20034;-70
2022/10/02 10:35:30;;;;;;;14.98;2.10;;;21.60;81.50;;;;;;5030824;28;20021;-70
2022/10/02 10:38:33;;;;;;;14.88;2.17;;;21.00;84.00;;;;;;5030928;28;20034;-73
2022/10/02 10:41:32;;;;;;;9.95;2.05;;;20.50;85.40;;;;;;5046211;28;20136;-74
2022/10/02 10:44:06;;;;;;;10.90;1.95;;;20.10;86.40;;;;;;5030480;28;20471;-70
2022/10/02 10:46:53;;;;;;;10.82;2.47;;;20.00;88.30;;;;;;5030746;28;20475;-71
2022/10/02 10:50:03;;;;;;;12.35;1.90;;;20.90;87.90;;;;;;5030388;28;20364;-70
2022/10/02 10:52:56;;;;;;;10.77;1.90;;;21.70;83.90;;;;;;5030286;28;20037;-71
2022/10/02 10:55:59;;;;;;;8.48;2.22;;;22.20;82.00;;;;;;5030267;28;20047;-71
2022/10/02 10:58:44;;;;;;;12.00;2.03;;;21.90;83.20;;;;;;5030675;28;20042;-70
2022/10/02 11:01:17;;;;;;;10.98;2.03;;;22.60;83.80;;;;;;5030376;28;20029;-69
2022/10/02 11:04:12;;;;;;;12.27;2.10;;;22.80;81.00;;;;;;5062240;28;20075;-70
2022/10/02 11:07:06;;;;;;;7.18;1.45;;;24.10;84.50;;;;;;5030169;28;20399;-70
2022/10/02 11:09:35;;;;;;;8.18;2.35;;;24.20;78.60;;;;;;5030351;28;20097;-70
2022/10/02 11:12:37;;;;;;;14.35;2.33;;;24.10;78.10;;;;;;5030091;28;20033;-70
2022/10/02 11:15:55;;;;;;;12.80;2.83;;;23.20;79.50;;;;;;5029911;28;20135;-69
2022/10/02 11:18:20;;;;;;;11.70;2.20;;;22.60;79.50;;;;;;5027649;28;20030;-69
2022/10/02 11:21:12;;;;;;;10.38;2.15;;;22.30;82.30;;;;;;5027742;28;20582;-70
2022/10/02 11:23:47;;;;;;;10.93;2.30;;;21.60;83.60;;;;;;5029315;28;20320;-70
2022/10/02 11:26:27;;;;;;;9.18;1.92;;;21.80;86.40;;;;;;5032003;28;20053;-70
2022/10/02 11:29:33;;;;;;;13.18;2.03;;;21.80;87.60;;;;;;5034094;28;20055;-70
2022/10/02 11:32:25;;;;;;;7.97;2.15;;;21.00;90.00;;;;;;5034181;28;20431;-69
2022/10/02 11:35:19;;;;;;;10.85;2.00;;;20.60;91.20;;;;;;5034091;28;20174;-69
2022/10/02 11:38:22;;;;;;;13.38;2.38;;;19.90;92.10;;;;;;5033012;28;20111;-70
2022/10/02 11:41:29;;;;;;;18.48;3.03;;;19.60;93.90;;;;;;5033234;28;20214;-70
2022/10/02 11:44:04;;;;;;;;;;;19.40;94.20;;;;;;5033450;28;20053;-70
2022/10/02 11:46:51;;;;;;;11.63;1.77;;;18.90;95.40;;;;;;5034280;28;19909;-70
2022/10/02 11:49:43;;;;;;;8.30;2.00;;;18.30;96.10;;;;;;5034033;28;20041;-70
2022/10/02 11:52:19;;;;;;;10.45;1.70;;;18.10;96.60;;;;;;5033858;28;20025;-70
2022/10/02 11:55:15;;;;;;;12.90;2.08;;;18.00;97.20;;;;;;5033845;28;20121;-70
2022/10/02 11:57:58;;;;;;;9.52;2.00;;;17.90;97.50;;;;;;5032700;28;20026;-71
2022/10/02 12:01:04;;;;;;;9.82;2.30;;;17.60;98.20;;;;;;5032737;28;20040;-70
2022/10/02 12:03:35;;;;;;;10.65;2.08;;;17.40;98.60;;;;;;5033504;28;20034;-69
2022/10/02 12:06:22;;;;;;;10.60;2.13;;;17.30;98.90;;;;;;5033743;28;20053;-70
2022/10/02 12:09:07;;;;;;;;;;;17.60;98.90;;;;;;5033980;28;20447;-70
2022/10/02 12:12:00;;;;;;;9.27;1.85;;;17.40;99.20;;;;;;5033299;28;19966;-70
2022/10/02 12:14:28;;;;;;;15.57;2.60;;;17.20;99.20;;;;;;5033271;28;20694;-70
2022/10/02 12:17:15;;;;;;;7.20;1.85;;;17.60;99.10;;;;;;5033823;28;20029;-70
2022/10/02 12:29:42;;;;;;;12.75;4.03;;;18.20;98.80;;;;;;5033182;28;20116;-70
2022/10/02 12:32:36;;;;;;;8.18;1.88;;;18.30;98.90;;;;;;5032911;28;20037;-71
2022/10/02 12:35:16;;;;;;;10.82;2.47;;;18.50;98.60;;;;;;5033191;28;20419;-70
2022/10/02 12:37:54;;;;;;;10.68;1.90;;;18.60;98.70;;;;;;5031799;28;20041;-72
2022/10/02 12:40:43;;;;;;;9.00;2.10;;;18.50;98.30;;;;;;5031745;28;20030;-71
2022/10/02 12:43:19;;;;;;;12.63;2.55;;;18.50;98.00;;;;;;5032581;28;20121;-71
2022/10/02 12:45:57;;;;;;;8.93;1.98;;;18.40;98.00;;;;;;5065109;28;20049;-71
2022/10/02 12:48:44;;;;;;;12.18;2.92;;;18.20;98.00;;;;;;5032733;28;20038;-72
2022/10/02 12:51:28;;;;;;;11.43;2.08;;;18.10;98.30;;;;;;5031740;28;20049;-72
2022/10/02 12:54:13;;;;;;;11.25;1.70;;;18.20;98.30;;;;;;5032644;28;20382;-72
2022/10/02 12:57:07;;;;;;;8.75;1.63;;;18.10;98.10;;;;;;5032681;28;20104;-71
2022/10/02 12:59:57;;;;;;;13.05;2.13;;;18.20;98.30;;;;;;5032684;28;20060;-71
2022/10/02 13:02:43;;;;;;;14.20;1.80;;;17.90;98.20;;;;;;5032556;28;20064;-71
2022/10/02 13:05:26;;;;;;;11.48;1.88;;;18.00;98.40;;;;;;5032939;28;20104;-71
2022/10/02 13:08:14;;;;;;;14.10;1.95;;;17.80;98.80;;;;;;5032551;28;20601;-72
2022/10/02 13:10:59;;;;;;;7.55;2.55;;;17.60;99.20;;;;;;5032283;28;20057;-71
2022/10/02 13:14:03;;;;;;;12.23;2.05;;;17.70;99.10;;;;;;5031096;28;20091;-71
2022/10/02 13:16:51;;;;;;;8.68;1.80;;;17.70;99.30;;;;;;5011734;28;20112;-72
2022/10/02 13:19:29;;;;;;;12.88;2.35;;;17.60;99.60;;;;;;5011937;28;20037;-72
2022/10/02 13:22:01;;;;;;;11.93;2.10;;;17.70;99.60;;;;;;5012607;28;20030;-71
2022/10/02 13:24:52;;;;;;;8.40;2.10;;;17.90;99.50;;;;;;5012252;28;20511;-72
2022/10/02 13:27:26;;;;;;;11.80;1.63;;;17.90;99.40;;;;;;5012231;28;20042;-71
2022/10/02 13:30:05;;;;;;;4.68;1.27;;;17.80;99.40;;;;;;5011946;28;20432;-70
2022/10/02 13:32:43;;;;;;;9.90;2.00;;;17.70;99.40;;;;;;5012069;28;20029;-70
2022/10/02 13:35:36;;;;;;;6.20;1.50;;;17.80;99.60;;;;;;5012708;28;20022;-72
2022/10/02 13:38:17;;;;;;;8.88;2.72;;;17.60;99.00;;;;;;5012408;28;20045;-72
2022/10/02 13:40:49;;;;;;;10.18;2.55;;;17.50;99.40;;;;;;5027426;28;20040;-71
2022/10/02 13:43:41;;;;;;;10.55;1.85;;;17.30;99.60;;;;;;5011765;28;20026;-72
2022/10/02 13:46:28;;;;;;;8.70;1.65;;;17.50;99.40;;;;;;5010939;28;20476;-70
2022/10/02 13:49:00;;;;;;;9.10;1.83;;;17.40;99.10;;;;;;5011301;28;20161;-70
2022/10/02 13:51:44;;;;;;;8.88;2.05;;;17.50;99.30;;;;;;5011920;28;20483;-72
2022/10/02 13:54:21;;;;;;;9.75;1.77;;;17.60;99.20;;;;;;5011891;28;20121;-70
2022/10/02 13:57:01;;;;;;;9.17;1.80;;;17.50;98.80;;;;;;5011872;28;20472;-71
2022/10/02 14:00:13;;;;;;;10.52;1.90;;;17.40;99.00;;;;;;5011730;28;20879;-70
2022/10/02 14:02:57;;;;;;;7.90;2.00;;;17.40;98.40;;;;;;5009952;28;20064;-70
2022/10/02 14:05:42;;;;;;;4.47;1.20;;;17.70;98.70;;;;;;5011508;28;20037;-71